createdAt,value
2022-10-22T00:03:54.828Z,98488.20
2022-10-22T00:08:56.710Z,98485.16
2022-10-22T00:13:58.513Z,98480.31
2022-10-22T00:19:00.485Z,98481.67
2022-10-22T00:24:02.423Z,98486.17
2022-10-22T00:29:04.143Z,98487.12
2022-10-22T00:34:05.887Z,98475.09
2022-10-22T00:39:07.607Z,98470.77
2022-10-22T00:44:47.774Z,98466.72
2022-10-22T00:49:50.001Z,98460.79
2022-10-22T00:54:52.430Z,98462.01
2022-10-22T00:59:55.886Z,98458.84
2022-10-22T01:04:57.674Z,98456.29
2022-10-22T01:10:18.225Z,98466.31
2022-10-22T01:15:34.928Z,98467.75
2022-10-22T01:21:04.413Z,98465.68
2022-10-22T01:26:26.009Z,98461.27
2022-10-22T01:31:32.637Z,98449.67
2022-10-22T01:36:37.588Z,98454.38
2022-10-22T01:41:40.482Z,98451.71
2022-10-22T01:46:42.418Z,98442.34
2022-10-22T01:52:12.797Z,98426.98
2022-10-22T01:57:28.867Z,98422.88
2022-10-22T02:02:34.204Z,98425.46
2022-10-22T02:07:43.904Z,98427.52
2022-10-22T02:12:50.379Z,98428.58
2022-10-22T02:17:55.364Z,98417.15
2022-10-22T02:22:58.949Z,98424.23
2022-10-22T02:28:13.116Z,98416.38
2022-10-22T02:33:22.350Z,98417.05
2022-10-22T02:38:26.851Z,98433.47
2022-10-22T02:43:29.571Z,98443.90
2022-10-22T02:48:31.389Z,98448.48
2022-10-22T02:53:33.375Z,98454.27
2022-10-22T02:58:35.269Z,98461.53
2022-10-22T03:03:37.069Z,98466.00
2022-10-22T03:08:40.931Z,98469.48
2022-10-22T03:13:42.835Z,98463.85
2022-10-22T03:18:44.603Z,98451.19
2022-10-22T03:23:47.777Z,98439.10
2022-10-22T03:28:49.974Z,98427.07
2022-10-22T03:33:51.802Z,98428.64
2022-10-22T03:38:54.276Z,98440.29
2022-10-22T03:43:57.482Z,98438.95
2022-10-22T03:48:59.218Z,98438.27
2022-10-22T03:54:00.995Z,98449.83
2022-10-22T03:59:03.391Z,98457.66
2022-10-22T04:04:05.237Z,98450.63
2022-10-22T04:09:07.270Z,98461.64
2022-10-22T04:14:09.097Z,98456.43
2022-10-22T04:19:10.861Z,98442.76
2022-10-22T04:24:12.613Z,98439.90
2022-10-22T04:29:16.154Z,98428.09
2022-10-22T04:34:18.285Z,98415.73
2022-10-22T04:39:20.042Z,98408.14
2022-10-22T04:44:22.200Z,98400.41
2022-10-22T04:49:24.312Z,98390.73
2022-10-22T04:54:29.051Z,98403.71
2022-10-22T04:59:34.021Z,98399.77
2022-10-22T05:04:35.870Z,98405.92
2022-10-22T05:09:37.756Z,98418.95
2022-10-22T05:14:43.909Z,98427.52
2022-10-22T05:19:46.648Z,98433.05
2022-10-22T05:24:49.166Z,98435.16
2022-10-22T05:29:51.074Z,98425.49
2022-10-22T05:34:52.883Z,98413.34
2022-10-22T05:40:01.914Z,98423.54
2022-10-22T05:45:14.526Z,98421.25
2022-10-22T05:50:16.393Z,98427.11
2022-10-22T05:55:18.161Z,98416.59
2022-10-22T06:00:20.121Z,98432.46
2022-10-22T06:05:21.953Z,98454.63
2022-10-22T06:10:23.953Z,98469.58
2022-10-22T06:15:25.752Z,98465.66
2022-10-22T06:20:27.637Z,98469.25
2022-10-22T06:25:29.456Z,98482.86
2022-10-22T06:30:31.300Z,98483.64
2022-10-22T06:35:33.418Z,98474.14
2022-10-22T06:40:35.178Z,98479.41
2022-10-22T06:45:37.031Z,98483.11
2022-10-22T06:50:38.834Z,98486.77
2022-10-22T06:55:40.596Z,98492.41
2022-10-22T07:00:42.364Z,98497.89
2022-10-22T07:05:44.129Z,98502.16
2022-10-22T07:10:45.847Z,98501.73
2022-10-22T07:15:55.207Z,98507.75
2022-10-22T07:20:57.380Z,98513.35
2022-10-22T07:25:59.570Z,98498.93
2022-10-22T07:31:01.399Z,98502.86
2022-10-22T07:36:06.039Z,98496.70
2022-10-22T07:41:07.993Z,98494.17
2022-10-22T07:46:09.911Z,98506.26
2022-10-22T07:51:11.826Z,98514.52
2022-10-22T07:56:14.141Z,98498.92
2022-10-22T08:01:16.040Z,98485.23
2022-10-22T08:06:17.931Z,98486.88
2022-10-22T08:11:19.795Z,98510.38
2022-10-22T08:16:21.595Z,98514.69
2022-10-22T08:21:23.448Z,98508.63
2022-10-22T08:26:25.213Z,98505.44
2022-10-22T08:31:27.011Z,98509.30
2022-10-22T08:36:31.232Z,98526.59
2022-10-22T08:41:40.438Z,98543.66
2022-10-22T08:47:13.250Z,98533.30
2022-10-22T08:52:18.736Z,98534.91
2022-10-22T08:57:23.662Z,98525.87
2022-10-22T09:02:28.173Z,98517.11
2022-10-22T09:07:29.970Z,98514.42
2022-10-22T09:12:31.768Z,98521.94
2022-10-22T09:17:50.182Z,98534.91
2022-10-22T09:22:57.538Z,98548.77
2022-10-22T09:27:59.397Z,98551.09
2022-10-22T09:33:07.273Z,98550.14
2022-10-22T09:38:09.094Z,98548.85
2022-10-22T09:43:14.917Z,98555.63
2022-10-22T09:48:41.797Z,98550.46
2022-10-22T09:53:47.374Z,98552.56
2022-10-22T09:58:51.314Z,98556.45
2022-10-22T10:03:53.548Z,98550.35
2022-10-22T10:08:55.400Z,98550.71
2022-10-22T10:14:21.581Z,98536.92
2022-10-22T10:19:44.762Z,98535.84
2022-10-22T10:24:56.602Z,98537.13
2022-10-22T10:30:21.468Z,98527.66
2022-10-22T10:35:55.101Z,98521.02
2022-10-22T10:41:07.564Z,98533.78
2022-10-22T10:46:29.520Z,98527.38
2022-10-22T10:51:54.585Z,98526.31
2022-10-22T10:57:10.130Z,98522.25
2022-10-22T11:02:27.317Z,98524.80
2022-10-22T11:07:37.017Z,98518.43
2022-10-22T11:12:48.797Z,98506.36
2022-10-22T11:17:53.051Z,98502.05
2022-10-22T11:23:21.005Z,98492.86
2022-10-22T11:28:40.325Z,98494.92
2022-10-22T11:33:52.700Z,98493.70
2022-10-22T11:38:59.007Z,98511.52
2022-10-22T11:44:22.751Z,98506.55
2022-10-22T11:49:41.990Z,98503.41
2022-10-22T11:54:44.881Z,98504.65
2022-10-22T11:59:46.596Z,98501.36
2022-10-22T12:04:48.363Z,98502.34
2022-10-22T12:14:59.674Z,98502.89
2022-10-22T12:20:11.606Z,98499.89
2022-10-22T12:25:22.276Z,98500.55
2022-10-22T12:30:27.253Z,98499.48
2022-10-22T12:35:33.076Z,98496.09
2022-10-22T12:40:35.914Z,98487.23
2022-10-22T12:45:39.208Z,98482.13
2022-10-22T12:50:43.799Z,98479.56
2022-10-22T12:55:49.624Z,98475.11
2022-10-22T13:00:58.521Z,98469.74
2022-10-22T13:06:30.143Z,98469.23
2022-10-22T13:11:48.279Z,98476.92
2022-10-22T13:17:09.022Z,98488.62
2022-10-22T13:22:29.127Z,98489.82
2022-10-22T13:27:31.242Z,98486.16
2022-10-22T13:32:34.061Z,98480.30
2022-10-22T13:37:38.146Z,98479.08
2022-10-22T13:42:40.403Z,98485.18
2022-10-22T13:47:46.638Z,98479.38
2022-10-22T13:52:53.365Z,98485.99
2022-10-22T13:57:57.581Z,98496.82
2022-10-22T14:03:00.255Z,98499.80
2022-10-22T14:08:02.415Z,98506.89
2022-10-22T14:13:07.249Z,98507.59
2022-10-22T14:18:15.484Z,98497.58
2022-10-22T14:23:20.782Z,98501.16
2022-10-22T14:28:22.664Z,98502.59
2022-10-22T14:33:31.501Z,98508.40
2022-10-22T14:38:34.124Z,98501.48
2022-10-22T14:43:35.981Z,98493.91
2022-10-22T14:48:37.803Z,98499.54
2022-10-22T14:53:39.618Z,98501.11
2022-10-22T14:58:41.613Z,98496.54
2022-10-22T15:03:43.729Z,98503.27
2022-10-22T15:08:45.871Z,98500.67
2022-10-22T15:13:47.936Z,98508.88
2022-10-22T15:18:49.720Z,98513.83
2022-10-22T15:23:51.525Z,98514.76
2022-10-22T15:28:53.423Z,98518.85
2022-10-22T15:33:59.465Z,98525.09
2022-10-22T15:39:08.942Z,98530.66
2022-10-22T15:44:19.728Z,98533.94
2022-10-22T15:49:23.579Z,98539.38
2022-10-22T15:54:28.759Z,98543.05
2022-10-22T15:59:30.885Z,98548.91
2022-10-22T16:04:33.146Z,98564.52
2022-10-22T16:09:34.914Z,98553.89
2022-10-22T16:14:37.065Z,98548.31
2022-10-22T16:19:38.993Z,98554.58
2022-10-22T16:24:41.124Z,98570.92
2022-10-22T16:29:43.072Z,98583.83
2022-10-22T16:34:45.020Z,98583.64
2022-10-22T16:39:46.805Z,98594.33
2022-10-22T16:44:48.706Z,98602.86
2022-10-22T16:49:50.516Z,98618.35
2022-10-22T16:54:52.362Z,98628.60
2022-10-22T16:59:54.510Z,98633.91
2022-10-22T17:04:56.332Z,98639.83
2022-10-22T17:09:58.131Z,98642.04
2022-10-22T17:15:00.095Z,98647.66
2022-10-22T17:20:02.035Z,98644.54
2022-10-22T17:25:22.049Z,98652.02
2022-10-22T17:30:27.282Z,98657.04
2022-10-22T17:35:29.225Z,98655.67
2022-10-22T17:40:31.069Z,98660.77
2022-10-22T17:45:33.004Z,98663.66
2022-10-22T17:50:34.846Z,98666.16
2022-10-22T17:55:36.753Z,98668.70
2022-10-22T18:00:38.639Z,98670.23
2022-10-22T18:05:40.506Z,98670.21
2022-10-22T18:10:43.017Z,98669.99
2022-10-22T18:15:44.818Z,98680.02
2022-10-22T18:20:53.251Z,98683.67
2022-10-22T18:25:55.101Z,98675.13
2022-10-22T18:30:56.908Z,98679.21
2022-10-22T18:36:04.483Z,98669.55
2022-10-22T18:41:08.524Z,98673.73
2022-10-22T18:46:10.308Z,98676.84
2022-10-22T18:51:12.127Z,98690.23
2022-10-22T18:56:13.901Z,98701.88
2022-10-22T19:01:19.917Z,98707.19
2022-10-22T19:06:32.000Z,98714.84
2022-10-22T19:11:35.911Z,98714.36
2022-10-22T19:16:38.708Z,98725.17
2022-10-22T19:21:40.502Z,98726.65
2022-10-22T19:26:42.635Z,98732.48
2022-10-22T19:31:44.538Z,98738.09
2022-10-22T19:36:46.401Z,98747.27
2022-10-22T19:41:48.739Z,98759.08
2022-10-22T19:46:50.493Z,98762.89
2022-10-22T19:51:52.323Z,98771.76
2022-10-22T19:56:54.132Z,98768.80
2022-10-22T20:01:56.000Z,98772.61
2022-10-22T20:06:58.080Z,98775.76
2022-10-22T20:12:00.432Z,98780.31
2022-10-22T20:17:02.255Z,98779.80
2022-10-22T20:22:04.068Z,98784.93
2022-10-22T20:27:05.845Z,98783.68
2022-10-22T20:32:08.888Z,98785.06
2022-10-22T20:37:10.981Z,98786.33
2022-10-22T20:42:12.824Z,98792.55
2022-10-22T20:47:14.612Z,98794.16
2022-10-22T20:52:16.514Z,98796.59
2022-10-22T20:57:18.290Z,98798.28
2022-10-22T21:02:20.587Z,98801.58
2022-10-22T21:07:22.511Z,98810.03
2022-10-22T21:12:26.854Z,98809.90
2022-10-22T21:17:28.802Z,98810.86
2022-10-22T21:22:30.604Z,98812.33
2022-10-22T21:27:32.390Z,98819.08
2022-10-22T21:32:34.165Z,98821.50
2022-10-22T21:37:35.997Z,98828.23
2022-10-22T21:42:37.734Z,98830.13
2022-10-22T21:47:46.261Z,98830.98
2022-10-22T21:52:47.968Z,98830.48
2022-10-22T21:57:49.751Z,98832.92
2022-10-22T22:02:51.473Z,98831.11
2022-10-22T22:07:53.220Z,98826.11
2022-10-22T22:12:54.984Z,98823.20
2022-10-22T22:17:56.803Z,98823.56
2022-10-22T22:22:58.668Z,98832.13
2022-10-22T22:28:00.423Z,98831.35
2022-10-22T22:33:02.148Z,98833.45
2022-10-22T22:38:04.066Z,98845.81
2022-10-22T22:43:05.778Z,98849.45
2022-10-22T22:48:07.946Z,98855.36
2022-10-22T22:53:09.652Z,98856.88
2022-10-22T22:58:11.416Z,98853.19
2022-10-22T23:03:13.131Z,98856.98
2022-10-22T23:08:14.891Z,98866.87
2022-10-22T23:13:19.391Z,98869.37
2022-10-22T23:18:21.121Z,98879.47
2022-10-22T23:23:22.854Z,98878.33
2022-10-22T23:28:24.703Z,98884.77
2022-10-22T23:33:26.706Z,98887.45
2022-10-22T23:38:29.031Z,98896.21
2022-10-22T23:43:31.930Z,98902.52
2022-10-22T23:48:33.906Z,98903.22
2022-10-22T23:53:35.765Z,98906.65
2022-10-22T23:58:38.168Z,98915.16
